Adel, IA

11:23 PM CDT on May 29, 2015 (GMT -0500)
Adel IA | | Change Station
CLOSE
Current Station
Personal Weather Station
Location: Adel, IA
Elevation: 1070 ft
Nearby Weather Stations

Elev 1070 ft 41.61 °N, 94.02 °W | Updated 7 minutes ago

Rain
Rain
61.7 °F
Feels Like 61.7 °F
N
2.7
Wind Variable Wind from WNW

Today
High -- | Low -- °F
--% Chance of Precip.
Yesterday
High -- | Low -- °F
Precip. -- in
5:45 AM 8:41 PM
Waxing Gibbous, 88% visible
Pressure 29.99 in
Visibility 10.0 miles
Clouds Overcast 900 ft
Dew Point 59 °F
Humidity 92%
Rainfall 0.14 in
Snow Depth Not available.
UV 0 out of 12
Pollen .90 out of 12
Air Quality Not available.
Flu Activity No Activity
METAR KPRO 300415Z AUTO 35019G23KT 10SM OVC009 15/14 A2999 RMK AO2 T01530139

More Conditions Fewer Conditions

Pressure 29.99 in
Visibility 10.0 miles
Clouds Overcast 900 ft
Dew Point 59 °F
Humidity 92%
Rainfall 0.14 in
Snow Depth Not available.
UV 0 out of 12
Pollen .90 out of 12
Air Quality Not available.
Flu Activity No Activity
METAR KPRO 300415Z AUTO 35019G23KT 10SM OVC009 15/14 A2999 RMK AO2 T01530139

More Conditions Fewer Conditions

10-Day Weather Forecast

Almanac

Astronomy

May. 29, 2015 Rise Set
Actual Time
Civil Twilight
Nautical Twilight
Astronomical Twilight
Moon
Length of Visible Light
Length of Day
Tomorrow will be .
, % of the Moon is Illuminated

Today's Extremes

State Highs State Lows

Community

WunderPhotos

Upload Photos

1,825,451 photos uploaded!

WunderBlogs® & News

Nearby

Air Quality

  Air Quality AQ Index Pollutant
Not available.

Snow Depth

Station Depth Elevation

Earthquake Activity

City Distance Mag. Time & Date
Minimum magnitude displayed is 2.5.

Coastal Water Temperatures

Place Temperature

Stations

Nearby Weather Stations

Station Location Temp. Windchill Dew Point Humidity Wind Precip. Elev Updated Type